createdAt,value
2016-07-15T00:00:23.121Z,1031.97
2016-07-15T00:01:23.084Z,1031.34
2016-07-15T00:02:23.100Z,1030.66
2016-07-15T00:03:23.101Z,1030.37
2016-07-15T00:04:23.090Z,1029.37
2016-07-15T00:05:23.081Z,1029.49
2016-07-15T00:06:23.090Z,1028.94
2016-07-15T00:07:23.098Z,1028.4
2016-07-15T00:08:23.094Z,1027.67
2016-07-15T00:09:23.094Z,1027.81
2016-07-15T00:10:23.101Z,1027.33
2016-07-15T00:11:23.109Z,1026.88
2016-07-15T00:12:23.087Z,1026.58
2016-07-15T00:13:23.109Z,1026.51
2016-07-15T00:14:23.113Z,1025.88
2016-07-15T00:15:23.111Z,1025.5
2016-07-15T00:16:23.116Z,1025.51
2016-07-15T00:17:23.115Z,1024.91
2016-07-15T00:18:23.107Z,1025.1
2016-07-15T00:19:23.112Z,1025.02
2016-07-15T00:20:23.114Z,1024.71
2016-07-15T00:21:23.118Z,1024.61
2016-07-15T00:22:23.114Z,1024.59
2016-07-15T00:23:23.119Z,1024.59
2016-07-15T00:24:23.114Z,1024.41
2016-07-15T00:25:23.125Z,1024.33
2016-07-15T00:26:23.118Z,1024.37
2016-07-15T00:27:23.145Z,1024.08
2016-07-15T00:28:23.121Z,1023.8
2016-07-15T00:29:23.116Z,1023.85
2016-07-15T00:30:23.105Z,1023.61
2016-07-15T00:31:23.122Z,1023.52
2016-07-15T00:32:23.118Z,1023.95
2016-07-15T00:33:23.117Z,1023.94
2016-07-15T00:34:23.127Z,1023.44
2016-07-15T00:35:23.142Z,1023.53
2016-07-15T00:36:23.120Z,1023.17
2016-07-15T00:37:23.115Z,1023.15
2016-07-15T00:38:23.121Z,1023.55
2016-07-15T00:39:23.802Z,1023.68
2016-07-15T00:40:23.145Z,1023.68
2016-07-15T00:41:23.115Z,1023.74
2016-07-15T00:42:23.119Z,1024.1
2016-07-15T00:43:23.116Z,1024.28
2016-07-15T00:44:23.174Z,1024.41
2016-07-15T00:45:23.147Z,1024.66
2016-07-15T00:46:23.122Z,1024.88
2016-07-15T00:47:23.120Z,1025.77
2016-07-15T00:48:23.127Z,1025.88
2016-07-15T00:49:23.166Z,1026.07
2016-07-15T00:50:23.147Z,1025.98
2016-07-15T00:51:23.149Z,1026.27
2016-07-15T00:52:23.157Z,1026.82
2016-07-15T00:53:23.148Z,1026.59
2016-07-15T00:54:23.147Z,1027.53
2016-07-15T00:55:23.147Z,1027.92
2016-07-15T00:56:23.146Z,1027.9
2016-07-15T00:57:23.134Z,1028.06
2016-07-15T00:58:23.151Z,1028.91
2016-07-15T00:59:23.152Z,1029.31
2016-07-15T01:00:23.145Z,1029.32
2016-07-15T01:01:23.150Z,1029.89
2016-07-15T01:02:23.146Z,1029.94
2016-07-15T01:03:23.155Z,1030.83
2016-07-15T01:04:23.156Z,1031.12
2016-07-15T01:05:23.172Z,1031.37
2016-07-15T01:06:23.148Z,1032.12
2016-07-15T01:07:23.164Z,1032.34
2016-07-15T01:08:23.147Z,1032.85
2016-07-15T01:09:23.147Z,1032.84
2016-07-15T01:10:23.138Z,1033.16
2016-07-15T01:11:23.147Z,1033.39
2016-07-15T01:12:23.136Z,1033.53
2016-07-15T01:13:23.149Z,1034.16
2016-07-15T01:14:23.139Z,1034.28
2016-07-15T01:15:23.147Z,1034.68
2016-07-15T01:16:23.146Z,1035.26
2016-07-15T01:17:23.143Z,1035.4
2016-07-15T01:18:23.143Z,1035.55
2016-07-15T01:19:23.157Z,1035.83
2016-07-15T01:20:23.162Z,1035.89
2016-07-15T01:21:23.155Z,1036.37
2016-07-15T01:22:23.174Z,1036.78
2016-07-15T01:23:23.151Z,1037.57
2016-07-15T01:24:23.158Z,1038.61
2016-07-15T01:25:23.176Z,1039.86
2016-07-15T01:26:23.153Z,1041.09
2016-07-15T01:27:23.150Z,1042.83
2016-07-15T01:28:23.183Z,1045.34
2016-07-15T01:29:23.178Z,1047.08
2016-07-15T01:30:23.162Z,1048.75
2016-07-15T01:31:23.185Z,1050.5
2016-07-15T01:32:23.171Z,1052.27
2016-07-15T01:33:23.178Z,1053.66
2016-07-15T01:34:23.178Z,1055.82
2016-07-15T01:35:23.181Z,1057.63
2016-07-15T01:36:23.165Z,1058.82
2016-07-15T01:37:23.171Z,1060.85
2016-07-15T01:38:23.166Z,1062.24
2016-07-15T01:39:23.178Z,1063.33
2016-07-15T01:40:23.180Z,1065.13
2016-07-15T01:41:23.190Z,1066.28
2016-07-15T01:42:23.183Z,1067.45
2016-07-15T01:43:23.179Z,1068.87
2016-07-15T01:44:23.178Z,1069.87
2016-07-15T01:45:23.171Z,1071.17
2016-07-15T01:46:23.180Z,1072.18
2016-07-15T01:47:23.169Z,1073.82
2016-07-15T01:48:23.179Z,1074.35
2016-07-15T01:49:23.180Z,1075.86
2016-07-15T01:50:23.180Z,1077
2016-07-15T01:51:23.164Z,1078.05
2016-07-15T01:52:23.177Z,1078.8
2016-07-15T01:53:23.189Z,1079.97
2016-07-15T01:54:23.177Z,1080.22
2016-07-15T01:55:23.191Z,1080.94
2016-07-15T01:56:23.174Z,1081.53
2016-07-15T01:57:23.181Z,1081.75
2016-07-15T01:58:23.187Z,1082.67
2016-07-15T01:59:23.211Z,1083.41
2016-07-15T02:00:23.181Z,1083.8
2016-07-15T02:01:23.193Z,1084.05
2016-07-15T02:02:23.209Z,1084.72
2016-07-15T02:03:23.201Z,1085.33
2016-07-15T02:04:23.194Z,1086.01
2016-07-15T02:05:23.211Z,1086.55
2016-07-15T02:06:23.210Z,1086.87
2016-07-15T02:07:23.185Z,1087.21
2016-07-15T02:08:23.270Z,1087.4
2016-07-15T02:09:23.199Z,1088.03
2016-07-15T02:10:23.188Z,1088.49
2016-07-15T02:11:23.202Z,1088.85
2016-07-15T02:12:23.209Z,1089.26
2016-07-15T02:13:23.198Z,1089.69
2016-07-15T02:14:23.209Z,1090.13
2016-07-15T02:15:23.211Z,1090.43
2016-07-15T02:16:23.204Z,1090.91
2016-07-15T02:17:23.023Z,1091.12
2016-07-15T02:18:23.018Z,1091.59
2016-07-15T02:19:23.028Z,1091.99
2016-07-15T02:20:23.024Z,1092.36
2016-07-15T02:21:23.048Z,1092.5
2016-07-15T02:22:23.031Z,1092.75
2016-07-15T02:23:23.016Z,1093.13
2016-07-15T02:24:23.038Z,1093.6
2016-07-15T02:25:23.038Z,1093.71
2016-07-15T02:26:23.032Z,1094.06
2016-07-15T02:27:23.039Z,1094.21
2016-07-15T02:28:23.043Z,1094.36
2016-07-15T02:29:23.036Z,1094.86
2016-07-15T02:30:23.037Z,1094.91
2016-07-15T02:31:23.039Z,1095.13
2016-07-15T02:32:23.048Z,1095.41
2016-07-15T02:33:23.025Z,1095.52
2016-07-15T02:34:23.044Z,1095.62
2016-07-15T02:35:23.041Z,1095.64
2016-07-15T02:36:23.031Z,1095.87
2016-07-15T02:37:23.049Z,1095.87
2016-07-15T02:38:23.037Z,1095.69
2016-07-15T02:39:23.041Z,1095.81
2016-07-15T02:40:23.038Z,1095.66
2016-07-15T02:41:23.045Z,1095.65
2016-07-15T02:42:23.051Z,1095.92
2016-07-15T02:43:23.061Z,1096.09
2016-07-15T02:44:23.050Z,1096.41
2016-07-15T02:45:23.036Z,1096.47
2016-07-15T02:46:23.052Z,1096.32
2016-07-15T02:47:23.050Z,1096.66
2016-07-15T02:48:23.050Z,1096.64
2016-07-15T02:49:23.050Z,1096.62
2016-07-15T02:50:23.054Z,1096.78
2016-07-15T02:51:23.048Z,1097.22
2016-07-15T02:52:23.050Z,1097.19
2016-07-15T02:53:23.070Z,1097.44
2016-07-15T02:54:23.063Z,1097.99
2016-07-15T02:55:23.047Z,1098.01
2016-07-15T02:56:23.052Z,1098.16
2016-07-15T02:57:23.052Z,1098.48
2016-07-15T02:58:23.064Z,1098.93
2016-07-15T02:59:23.137Z,1099.13
2016-07-15T03:00:23.157Z,1099.21
2016-07-15T03:01:23.141Z,1098.59
2016-07-15T03:02:23.146Z,1099.48
2016-07-15T03:03:23.144Z,1099.79
2016-07-15T03:04:23.185Z,1099.85
2016-07-15T03:05:23.144Z,1099.93
2016-07-15T03:06:23.159Z,1100.14
2016-07-15T03:07:23.173Z,1100.42
2016-07-15T03:08:23.156Z,1100.7
2016-07-15T03:09:23.147Z,1100.93
2016-07-15T03:10:23.171Z,1101.08
2016-07-15T03:11:23.162Z,1101.3
2016-07-15T03:12:23.150Z,1101.23
2016-07-15T03:13:23.143Z,1101.39
2016-07-15T03:14:23.131Z,1101.83
2016-07-15T03:15:23.135Z,1101.98
2016-07-15T03:16:23.143Z,1102.31
2016-07-15T03:17:23.150Z,1102.49
2016-07-15T03:18:23.154Z,1102.64
2016-07-15T03:19:23.162Z,1102.65
2016-07-15T03:20:23.170Z,1102.96
2016-07-15T03:21:23.173Z,1102.83
2016-07-15T03:22:23.145Z,1103.01
2016-07-15T03:23:23.151Z,1103.14
2016-07-15T03:24:23.148Z,1103.5
2016-07-15T03:25:23.156Z,1103.15
2016-07-15T03:26:23.162Z,1103.4
2016-07-15T03:27:23.157Z,1103.57
2016-07-15T03:28:23.160Z,1103.59
2016-07-15T03:29:23.149Z,1103.66
2016-07-15T03:30:23.164Z,1103.86
2016-07-15T03:31:23.172Z,1103.61
2016-07-15T03:32:23.158Z,1103.97
2016-07-15T03:33:23.151Z,1103.82
2016-07-15T03:34:23.168Z,1103.91
2016-07-15T03:35:23.173Z,1103.8
2016-07-15T03:36:23.156Z,1103.86
2016-07-15T03:37:23.149Z,1104.08
2016-07-15T03:38:23.154Z,1104.36
2016-07-15T03:39:23.160Z,1104.23
2016-07-15T03:40:23.156Z,1104.54
2016-07-15T03:41:23.179Z,1104.37
2016-07-15T03:42:23.276Z,1104.64
2016-07-15T03:43:23.274Z,1104.41
2016-07-15T03:44:23.274Z,1104.53
2016-07-15T03:45:23.281Z,1104.48
2016-07-15T03:46:23.274Z,1104.6
2016-07-15T03:47:23.280Z,1104.63
2016-07-15T03:48:23.271Z,1104.68
2016-07-15T03:49:23.274Z,1104.93
2016-07-15T03:50:23.268Z,1105.19
2016-07-15T03:51:23.277Z,1105.41
2016-07-15T03:52:23.287Z,1105.44
2016-07-15T03:53:23.273Z,1105.74
2016-07-15T03:54:23.278Z,1105.82
2016-07-15T03:55:23.275Z,1106.49
2016-07-15T03:56:23.282Z,1106.57
2016-07-15T03:57:23.288Z,1106.97
2016-07-15T03:58:23.281Z,1107.39
2016-07-15T03:59:23.286Z,1107.41
2016-07-15T04:00:23.274Z,1107.83
2016-07-15T04:01:23.281Z,1107.96
2016-07-15T04:02:23.279Z,1108.06
2016-07-15T04:03:23.286Z,1108.42
2016-07-15T04:04:23.309Z,1108.5
2016-07-15T04:05:23.286Z,1108.63
2016-07-15T04:06:23.305Z,1108.74
2016-07-15T04:07:23.306Z,1108.62
2016-07-15T04:08:23.307Z,1108.89
2016-07-15T04:09:23.278Z,1108.81
2016-07-15T04:10:23.305Z,1108.96
2016-07-15T04:11:23.303Z,1109
2016-07-15T04:12:23.298Z,1109.2
2016-07-15T04:13:23.311Z,1109.69
2016-07-15T04:14:23.306Z,1109.96
2016-07-15T04:15:23.305Z,1110.21
2016-07-15T04:16:23.306Z,1110.46
2016-07-15T04:17:23.324Z,1110.4
2016-07-15T04:18:23.298Z,1110.44
2016-07-15T04:19:23.331Z,1110.7
2016-07-15T04:20:23.288Z,1110.79
2016-07-15T04:21:23.326Z,1111
2016-07-15T04:22:23.314Z,1111.03
2016-07-15T04:23:23.307Z,1111.37
2016-07-15T04:24:23.304Z,1111.74
2016-07-15T04:25:23.322Z,1111.91
2016-07-15T04:26:23.308Z,1112.08
2016-07-15T04:27:23.310Z,1112.3
2016-07-15T04:28:23.309Z,1112.71
2016-07-15T04:29:23.312Z,1113
2016-07-15T04:30:23.308Z,1113.47
2016-07-15T04:31:23.307Z,1113.86
2016-07-15T04:32:23.306Z,1114.07
2016-07-15T04:33:23.310Z,1114.59
2016-07-15T04:34:23.308Z,1115.23
2016-07-15T04:35:23.310Z,1115.77
2016-07-15T04:36:23.318Z,1116.41
2016-07-15T04:37:23.309Z,1116.85
2016-07-15T04:38:23.317Z,1117.52
2016-07-15T04:39:23.308Z,1117.93
2016-07-15T04:40:23.370Z,1118.92
2016-07-15T04:41:23.321Z,1119.38
2016-07-15T04:42:23.316Z,1120.27
2016-07-15T04:43:23.338Z,1120.69
2016-07-15T04:44:23.320Z,1121
2016-07-15T04:45:23.316Z,1121.59
2016-07-15T04:46:23.337Z,1122.42
2016-07-15T04:47:23.312Z,1123
2016-07-15T04:48:23.313Z,1123.35
2016-07-15T04:49:23.335Z,1123.79
2016-07-15T04:50:23.333Z,1124.18
2016-07-15T04:51:23.339Z,1124.62
2016-07-15T04:52:23.339Z,1125
2016-07-15T04:53:23.376Z,1125.17
2016-07-15T04:54:23.338Z,1125.61
2016-07-15T04:55:23.332Z,1125.94
2016-07-15T04:56:23.353Z,1126.35
2016-07-15T04:57:23.344Z,1126.6
2016-07-15T04:58:23.335Z,1127.32
2016-07-15T04:59:23.341Z,1127.93
2016-07-15T05:00:23.337Z,1128.47
2016-07-15T05:01:23.344Z,1129.13
2016-07-15T05:02:23.339Z,1129.85
2016-07-15T05:03:23.367Z,1130.65
2016-07-15T05:04:23.337Z,1131.36
2016-07-15T05:05:23.549Z,1132.07
2016-07-15T05:06:23.333Z,1132.69
2016-07-15T05:07:23.339Z,1132.93
2016-07-15T05:08:23.380Z,1133.46
2016-07-15T05:09:23.343Z,1134.12
2016-07-15T05:10:23.412Z,1134.66
2016-07-15T05:11:23.391Z,1135.28
2016-07-15T05:12:23.346Z,1135.93
2016-07-15T05:13:23.397Z,1136.53
2016-07-15T05:14:23.339Z,1137.14
2016-07-15T05:15:23.356Z,1137.69
2016-07-15T05:16:23.371Z,1137.98
2016-07-15T05:17:23.535Z,1138.74
2016-07-15T05:18:23.344Z,1139.19
2016-07-15T05:19:23.349Z,1139.45
2016-07-15T05:20:23.369Z,1140.04
2016-07-15T05:21:23.364Z,1140.27
2016-07-15T05:22:23.401Z,1140.79
2016-07-15T05:23:23.348Z,1141.22
2016-07-15T05:24:23.353Z,1141.61
2016-07-15T05:25:23.346Z,1142.01
2016-07-15T05:26:23.371Z,1142.38
2016-07-15T05:27:23.388Z,1142.8
2016-07-15T05:28:23.348Z,1143.26
2016-07-15T05:29:23.358Z,1143.61
2016-07-15T05:30:23.371Z,1144
2016-07-15T05:31:23.357Z,1144.41
2016-07-15T05:32:23.362Z,1144.83
2016-07-15T05:33:23.370Z,1145.52
2016-07-15T05:34:23.613Z,1146.14
2016-07-15T05:35:23.778Z,1146.71
2016-07-15T05:36:23.613Z,1147.65
2016-07-15T05:37:23.546Z,1148.54
2016-07-15T05:38:24.109Z,1149.51
2016-07-15T05:39:23.621Z,1150.34
2016-07-15T05:40:23.373Z,1151.42
2016-07-15T05:41:23.371Z,1152.42
2016-07-15T05:42:23.376Z,1153.28
2016-07-15T05:43:23.416Z,1154.19
2016-07-15T05:44:23.739Z,1154.95
2016-07-15T05:45:23.626Z,1155.84
2016-07-15T05:46:23.582Z,1156.6
2016-07-15T05:47:23.461Z,1157.47
2016-07-15T05:48:23.370Z,1158.39
2016-07-15T05:49:23.423Z,1159.38
2016-07-15T05:50:23.384Z,1160.2
2016-07-15T05:51:23.370Z,1160.9
2016-07-15T05:52:23.477Z,1161.73
2016-07-15T05:53:23.384Z,1162.7
2016-07-15T05:54:23.398Z,1163.63
2016-07-15T05:55:23.379Z,1164.16
2016-07-15T05:56:23.459Z,1164.35
2016-07-15T05:57:23.375Z,1164.57
2016-07-15T05:58:23.507Z,1164.74
2016-07-15T05:59:23.390Z,1164.94
2016-07-15T06:00:23.396Z,1165.46
2016-07-15T06:01:23.378Z,1166.02
2016-07-15T06:02:23.379Z,1166.29
2016-07-15T06:03:23.764Z,1166.57
2016-07-15T06:04:23.779Z,1166.95
2016-07-15T06:05:23.384Z,1167.47
2016-07-15T06:06:23.395Z,1167.81
2016-07-15T06:07:23.399Z,1167.89
2016-07-15T06:08:23.383Z,1167.91
2016-07-15T06:09:23.405Z,1167.79
2016-07-15T06:10:23.405Z,1167.47
2016-07-15T06:11:23.398Z,1167.19
2016-07-15T06:12:23.403Z,1167.06
2016-07-15T06:13:23.387Z,1167.08
2016-07-15T06:14:23.399Z,1166.93
2016-07-15T06:15:23.404Z,1166.64
2016-07-15T06:16:23.393Z,1166.4
2016-07-15T06:17:23.405Z,1166.39
2016-07-15T06:18:23.423Z,1166.85
2016-07-15T06:19:23.404Z,1167.44
2016-07-15T06:20:23.408Z,1167.97
2016-07-15T06:21:23.398Z,1168.4
2016-07-15T06:22:23.427Z,1168.78
2016-07-15T06:23:23.399Z,1169.03
2016-07-15T06:24:23.403Z,1168.93
2016-07-15T06:25:23.403Z,1168.96
2016-07-15T06:26:23.404Z,1168.99
2016-07-15T06:27:23.413Z,1168.91
2016-07-15T06:28:23.416Z,1168.83
2016-07-15T06:29:23.404Z,1168.86
2016-07-15T06:30:23.405Z,1168.83
2016-07-15T06:31:23.411Z,1168.87
2016-07-15T06:32:23.419Z,1168.97
2016-07-15T06:33:23.481Z,1169
2016-07-15T06:34:23.417Z,1169.11
2016-07-15T06:35:25.697Z,1169.11
2016-07-15T06:36:23.397Z,1169.14
2016-07-15T06:37:23.417Z,1169.09
2016-07-15T06:38:25.694Z,1169.01
2016-07-15T06:39:23.544Z,1168.97
2016-07-15T06:40:30.580Z,1168.98
2016-07-15T06:41:37.630Z,1168.98
2016-07-15T06:42:39.467Z,1169.03
2016-07-15T06:43:40.311Z,1169.18
2016-07-15T06:44:37.754Z,1169.04
2016-07-15T06:45:29.978Z,1168.54
2016-07-15T06:46:42.419Z,1168.31
2016-07-15T06:48:09.968Z,1168.34
2016-07-15T06:49:37.005Z,1168.41
2016-07-15T06:50:59.734Z,1167.93
2016-07-15T06:52:17.959Z,1168.04
2016-07-15T06:53:17.499Z,1168.18
2016-07-15T06:54:15.674Z,1168.09
2016-07-15T06:55:14.931Z,1168.06
2016-07-15T06:56:16.988Z,1167.48
2016-07-15T06:57:14.792Z,1167.75
2016-07-15T06:58:10.109Z,1168.1
2016-07-15T06:59:10.096Z,1168.18
2016-07-15T07:00:10.111Z,1167.96
2016-07-15T07:01:10.120Z,1167.7
2016-07-15T07:02:10.127Z,1167.32
2016-07-15T07:03:10.115Z,1166.92
2016-07-15T07:04:10.099Z,1165.89
2016-07-15T07:05:10.112Z,1158.4
2016-07-15T07:06:10.113Z,1153.92
2016-07-15T07:07:10.115Z,1147.77
2016-07-15T07:08:10.125Z,1141.38
2016-07-15T07:09:10.112Z,1138.51
2016-07-15T07:10:10.121Z,1138.72
2016-07-15T07:11:10.127Z,1136.26
2016-07-15T07:12:10.123Z,1135.71
2016-07-15T07:13:10.126Z,1135.5
2016-07-15T07:14:10.135Z,1137.89
2016-07-15T07:15:15.671Z,1139.61
2016-07-15T07:16:11.343Z,1141.22
2016-07-15T07:17:10.154Z,1141.85
2016-07-15T07:18:21.119Z,1141.86
2016-07-15T07:19:17.642Z,1143.36
2016-07-15T07:20:10.361Z,1144.44
2016-07-15T07:21:14.376Z,1143.99
2016-07-15T07:22:10.144Z,1143
2016-07-15T07:23:17.320Z,1142.7
2016-07-15T07:24:10.162Z,1141.95
2016-07-15T07:25:10.135Z,1139.9
2016-07-15T07:26:10.141Z,1134.92
2016-07-15T07:27:10.138Z,1130.9
2016-07-15T07:28:10.225Z,1129.15
2016-07-15T07:29:10.161Z,1128.44
2016-07-15T07:30:10.129Z,1128.96
2016-07-15T07:31:10.135Z,1129.42
2016-07-15T07:32:10.202Z,1127.62
2016-07-15T07:33:10.147Z,1125.79
2016-07-15T07:34:10.158Z,1123.36
2016-07-15T07:35:10.187Z,1121.09
2016-07-15T07:36:10.152Z,1119.54
2016-07-15T07:37:10.177Z,1119.4
2016-07-15T07:38:10.165Z,1120.09
2016-07-15T07:39:10.152Z,1119.59
2016-07-15T07:40:10.158Z,1119.25
2016-07-15T07:41:10.153Z,1117.9
2016-07-15T07:42:10.164Z,1115.8
2016-07-15T07:43:10.153Z,1114.24
2016-07-15T07:44:10.152Z,1110.25
2016-07-15T07:45:10.158Z,1100.65
2016-07-15T07:46:10.143Z,1090.66
2016-07-15T07:47:10.159Z,1084.01
2016-07-15T07:48:10.148Z,1078.48
2016-07-15T07:49:10.184Z,1075.33
2016-07-15T07:50:10.168Z,1076.88
2016-07-15T07:51:10.153Z,1081.29
2016-07-15T07:52:10.158Z,1087.58
2016-07-15T07:53:10.178Z,1093.52
2016-07-15T07:54:10.162Z,1098.84
2016-07-15T07:55:10.163Z,1102.92
2016-07-15T07:56:10.238Z,1106.04
2016-07-15T07:57:10.189Z,1107.99
2016-07-15T07:58:10.169Z,1110.7
2016-07-15T07:59:10.175Z,1115.79
2016-07-15T08:00:10.283Z,1122.97
2016-07-15T08:01:10.163Z,1128.88
2016-07-15T08:02:10.196Z,1134.15
2016-07-15T08:03:10.182Z,1138.85
2016-07-15T08:04:10.179Z,1141.08
2016-07-15T08:05:10.191Z,1142.98
2016-07-15T08:06:10.180Z,1144.03
2016-07-15T08:07:10.181Z,1144.85
2016-07-15T08:08:10.178Z,1144.91
2016-07-15T08:09:10.170Z,1143.98
2016-07-15T08:10:10.191Z,1141.8
2016-07-15T08:11:10.178Z,1137
2016-07-15T08:12:10.181Z,1130.07
2016-07-15T08:13:10.190Z,1125.2
2016-07-15T08:14:10.181Z,1125.15
2016-07-15T08:15:10.185Z,1126.38
2016-07-15T08:16:10.194Z,1128.2
2016-07-15T08:17:10.240Z,1129.63
2016-07-15T08:18:10.192Z,1129.7
2016-07-15T08:19:10.182Z,1129.97
2016-07-15T08:20:10.189Z,1131.25
2016-07-15T08:21:10.185Z,1132.95
2016-07-15T08:22:10.189Z,1133.23
2016-07-15T08:23:10.907Z,1133.11
2016-07-15T08:24:10.242Z,1133.22
2016-07-15T08:25:10.214Z,1132.93
2016-07-15T08:26:10.211Z,1133.13
2016-07-15T08:27:10.225Z,1133.68
2016-07-15T08:28:10.191Z,1134.01
2016-07-15T08:29:10.195Z,1134.13
2016-07-15T08:30:10.191Z,1134.46
2016-07-15T08:31:10.210Z,1133.24
2016-07-15T08:32:10.213Z,1131.24
2016-07-15T08:33:10.208Z,1129.49
2016-07-15T08:34:10.211Z,1129.1
2016-07-15T08:35:10.204Z,1131.27
2016-07-15T08:36:10.204Z,1132.89
2016-07-15T08:37:10.201Z,1133.09
2016-07-15T08:38:10.211Z,1133.14
2016-07-15T08:39:10.211Z,1133.19
2016-07-15T08:40:10.215Z,1132.99
2016-07-15T08:41:10.206Z,1133.27
2016-07-15T08:42:10.209Z,1133.32
2016-07-15T08:43:10.216Z,1133.32
2016-07-15T08:44:10.209Z,1133.41
2016-07-15T08:45:10.213Z,1132.49
2016-07-15T08:46:10.217Z,1131.19
2016-07-15T08:47:10.221Z,1129.25
2016-07-15T08:48:10.218Z,1126.15
2016-07-15T08:49:10.281Z,1123.33
2016-07-15T08:50:10.361Z,1122.06
2016-07-15T08:51:10.217Z,1122.02
2016-07-15T08:52:10.234Z,1123.57
2016-07-15T08:53:10.261Z,1126.56
2016-07-15T08:54:10.219Z,1130.45
2016-07-15T08:55:10.241Z,1133.71
2016-07-15T08:56:10.221Z,1135.98
2016-07-15T08:57:10.255Z,1138.31
2016-07-15T08:58:10.243Z,1140.56
2016-07-15T08:59:10.222Z,1142.15
2016-07-15T09:00:10.247Z,1143.26
2016-07-15T09:01:10.242Z,1143.93
2016-07-15T09:02:10.235Z,1144.13
2016-07-15T09:03:10.243Z,1144.72
2016-07-15T09:04:10.232Z,1146.59
2016-07-15T09:05:10.255Z,1147.09
2016-07-15T09:06:10.241Z,1145.98
2016-07-15T09:07:10.229Z,1144.15
2016-07-15T09:08:10.226Z,1142.1
2016-07-15T09:09:10.244Z,1140.36
2016-07-15T09:10:10.239Z,1137.37
2016-07-15T09:11:10.244Z,1134.13
2016-07-15T09:12:10.250Z,1132.53
2016-07-15T09:13:10.248Z,1132.15
2016-07-15T09:14:10.252Z,1132.03
2016-07-15T09:15:10.246Z,1131.74
2016-07-15T09:16:10.254Z,1131.15
2016-07-15T09:17:10.246Z,1130.11
2016-07-15T09:18:10.254Z,1129.28
2016-07-15T09:19:10.286Z,1129.87
2016-07-15T09:20:10.247Z,1129.14
2016-07-15T09:21:10.260Z,1128.3
2016-07-15T09:22:10.247Z,1128.18
2016-07-15T09:23:10.247Z,1127.66
2016-07-15T09:24:10.272Z,1125.48
2016-07-15T09:25:10.260Z,1121
2016-07-15T09:26:10.254Z,1114.55
2016-07-15T09:27:10.268Z,1109.4
2016-07-15T09:28:10.285Z,1105.88
2016-07-15T09:29:10.284Z,1104.28
2016-07-15T09:30:10.279Z,1103.94
2016-07-15T09:31:10.279Z,1104.19
2016-07-15T09:32:10.259Z,1105.14
2016-07-15T09:33:10.283Z,1107.67
2016-07-15T09:34:10.256Z,1109.71
2016-07-15T09:35:10.290Z,1110.24
2016-07-15T09:36:10.276Z,1109.97
2016-07-15T09:37:10.285Z,1111.59
2016-07-15T09:38:10.259Z,1113.78
2016-07-15T09:39:10.266Z,1114.85
2016-07-15T09:40:10.268Z,1113.7
2016-07-15T09:41:10.275Z,1111.02
2016-07-15T09:42:10.294Z,1109.9
2016-07-15T09:43:10.274Z,1111.79
2016-07-15T09:44:10.278Z,1116.1
2016-07-15T09:45:10.269Z,1119.41
2016-07-15T09:46:10.270Z,1120.15
2016-07-15T09:47:10.276Z,1120.12
2016-07-15T09:48:10.275Z,1119.33
2016-07-15T09:49:10.274Z,1117.8
2016-07-15T09:50:10.281Z,1116.16
2016-07-15T09:51:10.319Z,1116.54
2016-07-15T09:52:10.282Z,1117.43
2016-07-15T09:53:10.305Z,1119.16
2016-07-15T09:54:10.297Z,1118.7
2016-07-15T09:55:10.315Z,1117.27
2016-07-15T09:56:10.535Z,1116.88
2016-07-15T09:57:10.300Z,1116.06
2016-07-15T09:58:10.279Z,1115.95
2016-07-15T09:59:10.279Z,1114.72
2016-07-15T10:00:10.286Z,1112.7
2016-07-15T10:01:10.289Z,1111.81
2016-07-15T10:02:10.304Z,1110.36
2016-07-15T10:03:10.306Z,1108.42
2016-07-15T10:04:10.308Z,1105.11
2016-07-15T10:05:10.304Z,1101.03
2016-07-15T10:06:10.351Z,1096.74
2016-07-15T10:07:10.295Z,1089.53
2016-07-15T10:08:10.358Z,1081.49
2016-07-15T10:09:10.315Z,1074.99
2016-07-15T10:10:10.307Z,1072.03
2016-07-15T10:11:10.304Z,1067.66
2016-07-15T10:12:10.310Z,1063.4
2016-07-15T10:13:10.305Z,1058.27
2016-07-15T10:14:10.305Z,1053.45
2016-07-15T10:15:10.301Z,1050.69
2016-07-15T10:16:10.307Z,1046.39
2016-07-15T10:17:10.297Z,1041.86
2016-07-15T10:18:10.309Z,1035.74
2016-07-15T10:19:10.312Z,1029.52
2016-07-15T10:20:10.313Z,1023.59
2016-07-15T10:21:10.301Z,1022.36
2016-07-15T10:22:10.309Z,1023.6
2016-07-15T10:23:10.307Z,1029.46
2016-07-15T10:24:10.308Z,1039.48
2016-07-15T10:25:10.313Z,1045.46
2016-07-15T10:26:10.334Z,1048.56
2016-07-15T10:27:10.329Z,1051.88
2016-07-15T10:28:10.306Z,1054.35
2016-07-15T10:29:10.323Z,1055.85
2016-07-15T10:30:10.353Z,1056.75
2016-07-15T10:31:10.328Z,1059.91
2016-07-15T10:32:10.312Z,1066.23
2016-07-15T10:33:10.322Z,1071.03
2016-07-15T10:34:10.329Z,1076.89
2016-07-15T10:35:10.321Z,1084.17
2016-07-15T10:36:10.347Z,1089.38
2016-07-15T10:37:10.351Z,1091.57
2016-07-15T10:38:10.340Z,1092.23
2016-07-15T10:39:10.337Z,1090.73
2016-07-15T10:40:10.324Z,1086.34
2016-07-15T10:41:10.362Z,1081.1
2016-07-15T10:42:10.323Z,1076.12
2016-07-15T10:43:10.334Z,1073.01
2016-07-15T10:44:10.341Z,1071.84
2016-07-15T10:45:10.345Z,1071.7
2016-07-15T10:46:10.380Z,1071.17
2016-07-15T10:47:10.367Z,1071.32
2016-07-15T10:48:10.372Z,1072.15
2016-07-15T10:49:10.345Z,1069.96
2016-07-15T10:50:10.340Z,1067.35
2016-07-15T10:51:10.375Z,1063.09
2016-07-15T10:52:10.353Z,1056.91
2016-07-15T10:53:10.339Z,1051.28
2016-07-15T10:54:10.415Z,1047.45
2016-07-15T10:55:10.367Z,1042.86
2016-07-15T10:56:10.350Z,1038.97
2016-07-15T10:57:10.441Z,1038.47
2016-07-15T10:58:10.377Z,1039.43
2016-07-15T10:59:10.391Z,1041.45
2016-07-15T11:00:10.351Z,1041.99
2016-07-15T11:01:10.401Z,1044.65
2016-07-15T11:02:10.372Z,1050.28
2016-07-15T11:03:10.362Z,1054.25
2016-07-15T11:04:10.399Z,1055.35
2016-07-15T11:05:10.357Z,1054.79
2016-07-15T11:06:10.382Z,1054.64
2016-07-15T11:07:10.386Z,1057.47
2016-07-15T11:08:10.383Z,1062.23
2016-07-15T11:09:10.424Z,1068.08
2016-07-15T11:10:10.358Z,1073.01
2016-07-15T11:11:10.385Z,1078.8
2016-07-15T11:12:10.373Z,1084.68
2016-07-15T11:13:10.366Z,1088.7
2016-07-15T11:14:10.430Z,1091.68
2016-07-15T11:15:10.372Z,1091.63
2016-07-15T11:16:10.365Z,1089.93
2016-07-15T11:17:10.371Z,1088.75
2016-07-15T11:18:10.362Z,1088.31
2016-07-15T11:19:10.370Z,1088.49
2016-07-15T11:20:10.439Z,1087.57
2016-07-15T11:21:10.635Z,1086.88
2016-07-15T11:22:10.372Z,1087.21
2016-07-15T11:23:10.368Z,1088.46
2016-07-15T11:24:10.375Z,1089.85
2016-07-15T11:25:10.377Z,1089.35
2016-07-15T11:26:10.368Z,1085.63
2016-07-15T11:27:10.399Z,1081.6
2016-07-15T11:28:10.598Z,1076.68
2016-07-15T11:29:10.383Z,1071.51
2016-07-15T11:30:10.382Z,1066.12
2016-07-15T11:31:10.367Z,1060.63
2016-07-15T11:32:10.373Z,1056.41
2016-07-15T11:33:10.381Z,1055.48
2016-07-15T11:34:10.389Z,1057.34
2016-07-15T11:35:10.377Z,1058.05
2016-07-15T11:36:10.387Z,1056.99
2016-07-15T11:37:10.413Z,1057.34
2016-07-15T11:38:10.401Z,1056.32
2016-07-15T11:39:10.401Z,1053.33
2016-07-15T11:40:10.405Z,1048.45
2016-07-15T11:41:10.389Z,1041.56
2016-07-15T11:42:10.592Z,1034.62
2016-07-15T11:43:10.387Z,1030.67
2016-07-15T11:44:10.395Z,1028.93
2016-07-15T11:45:10.394Z,1030.38
2016-07-15T11:46:10.401Z,1034.19
2016-07-15T11:47:10.387Z,1040.14
2016-07-15T11:48:10.395Z,1045.58
2016-07-15T11:49:10.404Z,1049.66
2016-07-15T11:50:10.399Z,1052.12
2016-07-15T11:51:10.406Z,1055.59
2016-07-15T11:52:10.389Z,1056.07
2016-07-15T11:53:10.407Z,1052.68
2016-07-15T11:54:10.410Z,1046.55
2016-07-15T11:55:10.416Z,1040.95
2016-07-15T11:56:10.402Z,1036.13
2016-07-15T11:57:10.415Z,1031.63
2016-07-15T11:58:10.412Z,1027.03
2016-07-15T11:59:10.400Z,1022.36
2016-07-15T12:00:10.406Z,1022.77
2016-07-15T12:01:10.402Z,1028.32
2016-07-15T12:02:10.414Z,1036.3
2016-07-15T12:03:10.402Z,1048.58
2016-07-15T12:04:10.405Z,1059.07
2016-07-15T12:05:10.405Z,1070.25
2016-07-15T12:06:10.413Z,1078.53
2016-07-15T12:07:10.416Z,1084.46
2016-07-15T12:08:10.421Z,1088.65
2016-07-15T12:09:10.436Z,1091.78
2016-07-15T12:10:10.426Z,1092.81